KMRF/MRF METAR and TAF weather

Enter ICAO airport designator
Station Type Date Time Source
KMRF METAR 2023/02/06 19:56 UTC NOAA

KMRF 061956Z AUTO 20011G17KT 10SM CLR 23/M07 A2993 RMK AO2 SLP095 T02331067


Station Type Date Time Source
KMRF Decoded METAR 2023/02/06 19:56 UTC NOAA

Marfa, TX, United States (KMRF) 30-22N 104-01W 1481M
Feb 06, 2023 - 02:56 PM EST / 2023.02.06 1956 UTC
Wind: from the SSW (200 degrees) at 13 MPH (11 KT) gusting to 20 MPH (17 KT):0
Visibility: 10 mile(s):0
Sky conditions: clear
Temperature: 73.9 F (23.3 C)
Dew Point: 19.9 F (-6.7 C)
Relative Humidity: 12%
Pressure (altimeter): 29.93 in. Hg (1013 hPa)
ob: KMRF 061956Z AUTO 20011G17KT 10SM CLR 23/M07 A2993 RMK AO2 SLP095 T02331067
cycle: 20

Station Type Date Time Source
KMRF TAF UTC NOAA

Error!

Example: see airport list